sensor_id;sensor_type;location;lat;lon;timestamp;pressure;altitude;pressure_sealevel;temperature;humidity
80781;BME280;70341;56.408;10.874;2023-07-28T00:00:43;100406.41;;;16.11;70.30
80781;BME280;70341;56.408;10.874;2023-07-28T00:03:32;100404.37;;;16.13;70.20
80781;BME280;70341;56.408;10.874;2023-07-28T00:06:00;100406.51;;;16.15;70.03
80781;BME280;70341;56.408;10.874;2023-07-28T00:08:31;100398.70;;;16.14;70.22
80781;BME280;70341;56.408;10.874;2023-07-28T00:10:59;100398.95;;;16.10;69.57
80781;BME280;70341;56.408;10.874;2023-07-28T00:13:29;100396.07;;;16.06;69.44
80781;BME280;70341;56.408;10.874;2023-07-28T00:15:58;100395.23;;;15.97;69.19
80781;BME280;70341;56.408;10.874;2023-07-28T00:18:27;100395.31;;;15.91;69.03
80781;BME280;70341;56.408;10.874;2023-07-28T00:20:56;100393.53;;;15.87;69.10
80781;BME280;70341;56.408;10.874;2023-07-28T00:23:28;100391.95;;;15.84;69.37
80781;BME280;70341;56.408;10.874;2023-07-28T00:25:56;100390.83;;;15.82;69.82
80781;BME280;70341;56.408;10.874;2023-07-28T00:28:26;100389.02;;;15.80;69.89
80781;BME280;70341;56.408;10.874;2023-07-28T00:30:54;100386.50;;;15.78;69.76
80781;BME280;70341;56.408;10.874;2023-07-28T00:33:24;100386.48;;;15.73;69.36
80781;BME280;70341;56.408;10.874;2023-07-28T00:35:52;100390.27;;;15.64;69.22
80781;BME280;70341;56.408;10.874;2023-07-28T00:38:23;100393.45;;;15.59;69.42
80781;BME280;70341;56.408;10.874;2023-07-28T00:40:51;100395.33;;;15.55;69.72
80781;BME280;70341;56.408;10.874;2023-07-28T00:43:22;100394.05;;;15.50;69.75
80781;BME280;70341;56.408;10.874;2023-07-28T00:45:51;100393.73;;;15.47;70.01
80781;BME280;70341;56.408;10.874;2023-07-28T00:48:21;100390.70;;;15.44;69.87
80781;BME280;70341;56.408;10.874;2023-07-28T00:50:50;100388.65;;;15.42;70.04
80781;BME280;70341;56.408;10.874;2023-07-28T00:53:22;100384.70;;;15.43;70.34
80781;BME280;70341;56.408;10.874;2023-07-28T00:55:51;100388.05;;;15.46;70.48
80781;BME280;70341;56.408;10.874;2023-07-28T00:58:21;100380.30;;;15.49;70.32
80781;BME280;70341;56.408;10.874;2023-07-28T01:00:49;100383.13;;;15.53;70.11
80781;BME280;70341;56.408;10.874;2023-07-28T01:03:20;100385.02;;;15.57;70.01
80781;BME280;70341;56.408;10.874;2023-07-28T01:08:49;100375.27;;;15.50;68.97
80781;BME280;70341;56.408;10.874;2023-07-28T01:11:21;100379.54;;;15.45;69.08
80781;BME280;70341;56.408;10.874;2023-07-28T01:13:50;100375.23;;;15.40;69.25
80781;BME280;70341;56.408;10.874;2023-07-28T01:16:20;100377.42;;;15.36;69.46
80781;BME280;70341;56.408;10.874;2023-07-28T01:18:49;100377.76;;;15.37;69.25
80781;BME280;70341;56.408;10.874;2023-07-28T01:21:28;100373.48;;;15.36;69.26
80781;BME280;70341;56.408;10.874;2023-07-28T01:26:59;100371.15;;;15.28;69.67
80781;BME280;70341;56.408;10.874;2023-07-28T01:29:28;100371.75;;;15.24;69.88
80781;BME280;70341;56.408;10.874;2023-07-28T01:31:59;100369.74;;;15.22;69.76
80781;BME280;70341;56.408;10.874;2023-07-28T01:34:28;100375.30;;;15.19;69.68
80781;BME280;70341;56.408;10.874;2023-07-28T01:36:57;100376.09;;;15.18;69.79
80781;BME280;70341;56.408;10.874;2023-07-28T01:39:26;100376.95;;;15.16;69.76
80781;BME280;70341;56.408;10.874;2023-07-28T01:41:56;100377.27;;;15.11;69.99
80781;BME280;70341;56.408;10.874;2023-07-28T01:44:24;100378.79;;;15.07;69.94
80781;BME280;70341;56.408;10.874;2023-07-28T01:46:55;100382.67;;;15.02;69.51
80781;BME280;70341;56.408;10.874;2023-07-28T01:49:23;100382.58;;;14.95;69.02
80781;BME280;70341;56.408;10.874;2023-07-28T01:51:54;100382.61;;;14.89;68.80
80781;BME280;70341;56.408;10.874;2023-07-28T01:54:22;100383.77;;;14.82;68.74
80781;BME280;70341;56.408;10.874;2023-07-28T01:56:53;100379.94;;;14.78;69.05
80781;BME280;70341;56.408;10.874;2023-07-28T01:59:21;100383.94;;;14.77;69.14
80781;BME280;70341;56.408;10.874;2023-07-28T02:01:51;100381.08;;;14.74;69.03
80781;BME280;70341;56.408;10.874;2023-07-28T02:04:20;100384.80;;;14.69;69.30
80781;BME280;70341;56.408;10.874;2023-07-28T02:06:49;100385.66;;;14.64;68.98
80781;BME280;70341;56.408;10.874;2023-07-28T02:09:18;100390.52;;;14.61;68.67
80781;BME280;70341;56.408;10.874;2023-07-28T02:11:48;100391.29;;;14.56;68.49
80781;BME280;70341;56.408;10.874;2023-07-28T02:14:17;100393.42;;;14.51;68.30
80781;BME280;70341;56.408;10.874;2023-07-28T02:16:47;100397.67;;;14.46;68.60
80781;BME280;70341;56.408;10.874;2023-07-28T02:19:15;100392.33;;;14.42;68.61
80781;BME280;70341;56.408;10.874;2023-07-28T02:21:46;100399.38;;;14.41;68.68
80781;BME280;70341;56.408;10.874;2023-07-28T02:24:14;100397.30;;;14.37;68.50
80781;BME280;70341;56.408;10.874;2023-07-28T02:26:45;100395.77;;;14.33;68.92
80781;BME280;70341;56.408;10.874;2023-07-28T02:29:13;100394.60;;;14.28;68.68
80781;BME280;70341;56.408;10.874;2023-07-28T02:31:43;100394.06;;;14.26;68.49
80781;BME280;70341;56.408;10.874;2023-07-28T02:34:11;100395.17;;;14.22;69.03
80781;BME280;70341;56.408;10.874;2023-07-28T02:36:42;100398.80;;;14.21;69.02
80781;BME280;70341;56.408;10.874;2023-07-28T02:39:10;100400.08;;;14.21;69.24
80781;BME280;70341;56.408;10.874;2023-07-28T02:41:40;100403.16;;;14.20;69.39
80781;BME280;70341;56.408;10.874;2023-07-28T02:44:09;100399.02;;;14.21;69.59
80781;BME280;70341;56.408;10.874;2023-07-28T02:46:39;100399.89;;;14.21;69.60
80781;BME280;70341;56.408;10.874;2023-07-28T02:49:08;100398.75;;;14.19;69.58
80781;BME280;70341;56.408;10.874;2023-07-28T02:51:38;100400.66;;;14.17;69.09
80781;BME280;70341;56.408;10.874;2023-07-28T02:54:06;100396.23;;;14.13;69.23
80781;BME280;70341;56.408;10.874;2023-07-28T02:56:37;100399.39;;;14.11;68.85
80781;BME280;70341;56.408;10.874;2023-07-28T02:59:05;100400.76;;;14.07;68.70
80781;BME280;70341;56.408;10.874;2023-07-28T03:01:36;100404.36;;;14.03;68.88
80781;BME280;70341;56.408;10.874;2023-07-28T03:04:04;100401.85;;;13.97;69.31
80781;BME280;70341;56.408;10.874;2023-07-28T03:06:35;100405.77;;;13.95;69.44
80781;BME280;70341;56.408;10.874;2023-07-28T03:09:04;100405.61;;;13.95;69.39
80781;BME280;70341;56.408;10.874;2023-07-28T03:11:34;100405.39;;;13.92;68.52
80781;BME280;70341;56.408;10.874;2023-07-28T03:14:02;100408.45;;;13.88;68.48
80781;BME280;70341;56.408;10.874;2023-07-28T03:16:33;100411.67;;;13.85;68.84
80781;BME280;70341;56.408;10.874;2023-07-28T03:19:02;100412.00;;;13.83;69.48
80781;BME280;70341;56.408;10.874;2023-07-28T03:21:33;100411.00;;;13.78;69.54
80781;BME280;70341;56.408;10.874;2023-07-28T03:24:02;100413.30;;;13.78;69.37
80781;BME280;70341;56.408;10.874;2023-07-28T03:26:32;100409.17;;;13.79;69.26
80781;BME280;70341;56.408;10.874;2023-07-28T03:29:01;100410.73;;;13.80;69.31
80781;BME280;70341;56.408;10.874;2023-07-28T03:31:31;100411.48;;;13.79;69.59
80781;BME280;70341;56.408;10.874;2023-07-28T03:34:00;100409.55;;;13.79;69.41
80781;BME280;70341;56.408;10.874;2023-07-28T03:36:30;100406.23;;;13.77;69.19
80781;BME280;70341;56.408;10.874;2023-07-28T03:38:59;100408.52;;;13.72;68.38
80781;BME280;70341;56.408;10.874;2023-07-28T03:41:29;100407.13;;;13.62;68.46
80781;BME280;70341;56.408;10.874;2023-07-28T03:43:58;100409.56;;;13.57;68.45
80781;BME280;70341;56.408;10.874;2023-07-28T03:46:28;100407.80;;;13.47;68.29
80781;BME280;70341;56.408;10.874;2023-07-28T03:48:58;100407.03;;;13.42;68.53
80781;BME280;70341;56.408;10.874;2023-07-28T03:51:27;100406.89;;;13.45;68.65
80781;BME280;70341;56.408;10.874;2023-07-28T03:53:55;100406.20;;;13.47;68.96
80781;BME280;70341;56.408;10.874;2023-07-28T03:56:26;100403.81;;;13.51;68.70
80781;BME280;70341;56.408;10.874;2023-07-28T03:58:54;100407.30;;;13.56;69.20
80781;BME280;70341;56.408;10.874;2023-07-28T04:01:25;100408.23;;;13.58;69.66
80781;BME280;70341;56.408;10.874;2023-07-28T04:03:53;100410.77;;;13.64;70.05
80781;BME280;70341;56.408;10.874;2023-07-28T04:06:46;100410.00;;;13.71;70.12
80781;BME280;70341;56.408;10.874;2023-07-28T04:09:16;100410.35;;;13.84;70.23
80781;BME280;70341;56.408;10.874;2023-07-28T04:11:45;100412.60;;;13.94;70.44
80781;BME280;70341;56.408;10.874;2023-07-28T04:14:15;100415.13;;;14.02;70.13
80781;BME280;70341;56.408;10.874;2023-07-28T04:16:43;100418.09;;;14.09;69.77
80781;BME280;70341;56.408;10.874;2023-07-28T04:19:13;100417.72;;;14.12;69.13
80781;BME280;70341;56.408;10.874;2023-07-28T04:21:42;100425.34;;;14.20;69.27
80781;BME280;70341;56.408;10.874;2023-07-28T04:24:11;100428.98;;;14.25;69.19
80781;BME280;70341;56.408;10.874;2023-07-28T04:26:40;100429.34;;;14.30;69.29
80781;BME280;70341;56.408;10.874;2023-07-28T04:29:10;100423.81;;;14.39;69.42
80781;BME280;70341;56.408;10.874;2023-07-28T04:31:38;100422.11;;;14.50;69.84
80781;BME280;70341;56.408;10.874;2023-07-28T04:34:09;100421.78;;;14.61;69.75
80781;BME280;70341;56.408;10.874;2023-07-28T04:36:37;100422.79;;;14.71;69.56
80781;BME280;70341;56.408;10.874;2023-07-28T04:39:08;100428.41;;;14.78;69.45
80781;BME280;70341;56.408;10.874;2023-07-28T04:41:36;100426.11;;;14.83;69.45
80781;BME280;70341;56.408;10.874;2023-07-28T04:44:06;100428.05;;;14.89;69.48
80781;BME280;70341;56.408;10.874;2023-07-28T04:46:35;100429.20;;;14.99;69.56
80781;BME280;70341;56.408;10.874;2023-07-28T04:49:05;100431.97;;;15.09;69.53
80781;BME280;70341;56.408;10.874;2023-07-28T04:51:33;100433.66;;;15.19;69.45
80781;BME280;70341;56.408;10.874;2023-07-28T04:54:04;100432.74;;;15.28;69.49
80781;BME280;70341;56.408;10.874;2023-07-28T04:56:32;100433.34;;;15.38;69.50
80781;BME280;70341;56.408;10.874;2023-07-28T04:59:02;100436.10;;;15.48;69.46
80781;BME280;70341;56.408;10.874;2023-07-28T05:01:30;100435.83;;;15.57;69.44
80781;BME280;70341;56.408;10.874;2023-07-28T05:04:01;100437.39;;;15.67;69.20
80781;BME280;70341;56.408;10.874;2023-07-28T05:06:29;100437.58;;;15.78;69.09
80781;BME280;70341;56.408;10.874;2023-07-28T05:09:00;100438.66;;;15.88;69.17
80781;BME280;70341;56.408;10.874;2023-07-28T05:11:28;100441.26;;;16.00;69.20
80781;BME280;70341;56.408;10.874;2023-07-28T05:13:58;100445.55;;;16.11;69.20
80781;BME280;70341;56.408;10.874;2023-07-28T05:16:27;100447.36;;;16.24;69.19
80781;BME280;70341;56.408;10.874;2023-07-28T05:18:56;100445.19;;;16.35;69.10
80781;BME280;70341;56.408;10.874;2023-07-28T05:21:25;100444.20;;;16.46;69.09
80781;BME280;70341;56.408;10.874;2023-07-28T05:23:54;100442.49;;;16.58;69.04
80781;BME280;70341;56.408;10.874;2023-07-28T05:26:23;100446.33;;;16.72;68.89
80781;BME280;70341;56.408;10.874;2023-07-28T05:28:53;100447.98;;;16.87;68.89
80781;BME280;70341;56.408;10.874;2023-07-28T05:31:22;100445.69;;;16.99;69.10
80781;BME280;70341;56.408;10.874;2023-07-28T05:33:52;100446.42;;;17.11;68.93
80781;BME280;70341;56.408;10.874;2023-07-28T05:36:21;100441.74;;;17.24;68.78
80781;BME280;70341;56.408;10.874;2023-07-28T05:38:51;100444.92;;;17.37;69.04
80781;BME280;70341;56.408;10.874;2023-07-28T05:41:19;100440.71;;;17.51;69.26
80781;BME280;70341;56.408;10.874;2023-07-28T05:43:50;100440.09;;;17.64;69.03
80781;BME280;70341;56.408;10.874;2023-07-28T05:46:19;100442.23;;;17.78;69.23
80781;BME280;70341;56.408;10.874;2023-07-28T05:48:49;100439.66;;;17.89;69.82
80781;BME280;70341;56.408;10.874;2023-07-28T05:51:17;100443.02;;;18.02;70.32
80781;BME280;70341;56.408;10.874;2023-07-28T05:53:49;100447.83;;;18.14;70.46
80781;BME280;70341;56.408;10.874;2023-07-28T05:56:17;100445.33;;;18.25;70.39
80781;BME280;70341;56.408;10.874;2023-07-28T05:58:49;100445.20;;;18.41;69.78
80781;BME280;70341;56.408;10.874;2023-07-28T06:01:17;100448.54;;;18.58;70.38
80781;BME280;70341;56.408;10.874;2023-07-28T06:03:46;100451.44;;;18.76;70.51
80781;BME280;70341;56.408;10.874;2023-07-28T06:06:14;100454.01;;;18.92;69.25
80781;BME280;70341;56.408;10.874;2023-07-28T06:08:45;100456.03;;;19.05;68.67
80781;BME280;70341;56.408;10.874;2023-07-28T06:11:13;100453.30;;;19.16;67.76
80781;BME280;70341;56.408;10.874;2023-07-28T06:13:44;100453.05;;;19.26;67.68
80781;BME280;70341;56.408;10.874;2023-07-28T06:16:14;100458.52;;;19.32;67.24
80781;BME280;70341;56.408;10.874;2023-07-28T06:18:44;100458.30;;;19.39;67.06
80781;BME280;70341;56.408;10.874;2023-07-28T06:21:12;100459.89;;;19.53;66.90
80781;BME280;70341;56.408;10.874;2023-07-28T06:23:42;100463.28;;;19.62;66.45
80781;BME280;70341;56.408;10.874;2023-07-28T06:26:10;100461.29;;;19.73;66.32
80781;BME280;70341;56.408;10.874;2023-07-28T06:28:39;100460.13;;;19.85;66.27
80781;BME280;70341;56.408;10.874;2023-07-28T06:31:07;100458.79;;;19.99;66.62
80781;BME280;70341;56.408;10.874;2023-07-28T06:33:38;100457.23;;;20.13;65.73
80781;BME280;70341;56.408;10.874;2023-07-28T06:36:06;100461.40;;;20.25;65.22
80781;BME280;70341;56.408;10.874;2023-07-28T06:38:37;100460.82;;;20.35;64.79
80781;BME280;70341;56.408;10.874;2023-07-28T06:41:05;100462.61;;;20.30;63.65
80781;BME280;70341;56.408;10.874;2023-07-28T06:43:36;100466.05;;;20.35;63.65
80781;BME280;70341;56.408;10.874;2023-07-28T06:46:04;100470.32;;;20.27;62.60
80781;BME280;70341;56.408;10.874;2023-07-28T06:48:35;100470.45;;;20.11;62.57
80781;BME280;70341;56.408;10.874;2023-07-28T06:51:03;100472.05;;;20.13;63.74
80781;BME280;70341;56.408;10.874;2023-07-28T06:53:33;100469.54;;;20.27;63.85
80781;BME280;70341;56.408;10.874;2023-07-28T06:56:02;100471.34;;;20.51;63.37
80781;BME280;70341;56.408;10.874;2023-07-28T06:58:31;100471.70;;;20.74;62.85
80781;BME280;70341;56.408;10.874;2023-07-28T07:01:00;100473.87;;;20.86;61.56
80781;BME280;70341;56.408;10.874;2023-07-28T07:03:30;100477.23;;;20.85;60.97
80781;BME280;70341;56.408;10.874;2023-07-28T07:05:58;100478.56;;;21.07;61.34
80781;BME280;70341;56.408;10.874;2023-07-28T07:08:28;100473.75;;;21.35;61.08
80781;BME280;70341;56.408;10.874;2023-07-28T07:10:57;100478.98;;;21.69;59.88
80781;BME280;70341;56.408;10.874;2023-07-28T07:13:27;100481.36;;;22.01;59.52
80781;BME280;70341;56.408;10.874;2023-07-28T07:15:56;100484.20;;;22.34;58.70
80781;BME280;70341;56.408;10.874;2023-07-28T07:18:26;100482.12;;;22.54;57.39
80781;BME280;70341;56.408;10.874;2023-07-28T07:20:54;100491.55;;;22.80;56.98
80781;BME280;70341;56.408;10.874;2023-07-28T07:23:25;100490.45;;;23.06;56.20
80781;BME280;70341;56.408;10.874;2023-07-28T07:25:53;100491.16;;;23.23;55.64
80781;BME280;70341;56.408;10.874;2023-07-28T07:28:22;100493.30;;;23.23;55.13
80781;BME280;70341;56.408;10.874;2023-07-28T07:30:51;100500.79;;;23.39;53.94
80781;BME280;70341;56.408;10.874;2023-07-28T07:33:23;100501.56;;;23.52;53.29
80781;BME280;70341;56.408;10.874;2023-07-28T07:35:51;100495.84;;;23.70;53.57
80781;BME280;70341;56.408;10.874;2023-07-28T07:38:21;100493.17;;;23.91;53.68
80781;BME280;70341;56.408;10.874;2023-07-28T07:40:49;100490.18;;;24.19;52.89
80781;BME280;70341;56.408;10.874;2023-07-28T07:43:20;100494.55;;;24.42;52.30
80781;BME280;70341;56.408;10.874;2023-07-28T07:45:48;100496.62;;;24.69;51.32
80781;BME280;70341;56.408;10.874;2023-07-28T07:48:19;100499.17;;;24.89;50.43
80781;BME280;70341;56.408;10.874;2023-07-28T07:50:47;100496.38;;;25.00;49.33
80781;BME280;70341;56.408;10.874;2023-07-28T07:53:18;100499.14;;;24.86;48.34
80781;BME280;70341;56.408;10.874;2023-07-28T07:55:46;100501.08;;;24.53;47.73
80781;BME280;70341;56.408;10.874;2023-07-28T07:58:16;100505.19;;;24.21;48.18
80781;BME280;70341;56.408;10.874;2023-07-28T08:00:44;100506.52;;;23.98;49.05
80781;BME280;70341;56.408;10.874;2023-07-28T08:03:14;100508.67;;;23.92;48.89
80781;BME280;70341;56.408;10.874;2023-07-28T08:05:42;100515.77;;;23.81;49.16
80781;BME280;70341;56.408;10.874;2023-07-28T08:08:14;100513.77;;;23.75;49.70
80781;BME280;70341;56.408;10.874;2023-07-28T08:10:43;100515.61;;;23.62;49.72
80781;BME280;70341;56.408;10.874;2023-07-28T08:13:14;100518.69;;;23.79;49.81
80781;BME280;70341;56.408;10.874;2023-07-28T08:15:43;100521.67;;;23.96;49.17
80781;BME280;70341;56.408;10.874;2023-07-28T08:18:14;100519.14;;;24.14;47.28
80781;BME280;70341;56.408;10.874;2023-07-28T08:20:42;100521.19;;;24.39;47.80
80781;BME280;70341;56.408;10.874;2023-07-28T08:23:12;100517.22;;;24.67;47.21
80781;BME280;70341;56.408;10.874;2023-07-28T08:25:40;100525.48;;;25.02;46.24
80781;BME280;70341;56.408;10.874;2023-07-28T08:28:10;100526.29;;;25.04;45.24
80781;BME280;70341;56.408;10.874;2023-07-28T08:30:38;100530.86;;;24.76;44.61
80781;BME280;70341;56.408;10.874;2023-07-28T08:33:09;100534.98;;;24.39;45.49
80781;BME280;70341;56.408;10.874;2023-07-28T08:35:37;100534.75;;;24.09;45.97
80781;BME280;70341;56.408;10.874;2023-07-28T08:38:07;100534.29;;;23.90;47.54
80781;BME280;70341;56.408;10.874;2023-07-28T08:40:36;100533.80;;;23.84;47.81
80781;BME280;70341;56.408;10.874;2023-07-28T08:43:05;100538.25;;;24.12;48.85
80781;BME280;70341;56.408;10.874;2023-07-28T08:45:34;100533.61;;;24.49;48.40
80781;BME280;70341;56.408;10.874;2023-07-28T08:48:04;100539.36;;;24.80;47.09
80781;BME280;70341;56.408;10.874;2023-07-28T08:50:33;100540.30;;;25.11;45.53
80781;BME280;70341;56.408;10.874;2023-07-28T08:53:02;100536.80;;;25.44;44.08
80781;BME280;70341;56.408;10.874;2023-07-28T08:55:31;100536.83;;;25.87;44.47
80781;BME280;70341;56.408;10.874;2023-07-28T08:58:22;100540.54;;;26.16;43.86
80781;BME280;70341;56.408;10.874;2023-07-28T09:00:52;100540.58;;;26.39;43.91
80781;BME280;70341;56.408;10.874;2023-07-28T09:03:21;100545.14;;;26.28;42.53
80781;BME280;70341;56.408;10.874;2023-07-28T09:05:51;100545.58;;;26.00;42.46
80781;BME280;70341;56.408;10.874;2023-07-28T09:08:19;100546.91;;;25.73;44.88
80781;BME280;70341;56.408;10.874;2023-07-28T09:10:49;100556.05;;;25.57;45.50
80781;BME280;70341;56.408;10.874;2023-07-28T09:13:18;100555.36;;;25.43;46.14
80781;BME280;70341;56.408;10.874;2023-07-28T09:15:48;100556.85;;;25.32;46.72
80781;BME280;70341;56.408;10.874;2023-07-28T09:18:17;100554.33;;;25.09;47.23
80781;BME280;70341;56.408;10.874;2023-07-28T09:20:47;100553.73;;;24.90;47.59
80781;BME280;70341;56.408;10.874;2023-07-28T09:23:15;100558.52;;;25.02;48.18
80781;BME280;70341;56.408;10.874;2023-07-28T09:25:45;100559.48;;;25.10;47.74
80781;BME280;70341;56.408;10.874;2023-07-28T09:28:14;100559.17;;;25.46;47.21
80781;BME280;70341;56.408;10.874;2023-07-28T09:30:49;100558.77;;;25.36;46.85
80781;BME280;70341;56.408;10.874;2023-07-28T09:33:32;100564.02;;;25.17;46.92
80781;BME280;70341;56.408;10.874;2023-07-28T09:36:12;100567.42;;;25.52;46.86
80781;BME280;70341;56.408;10.874;2023-07-28T09:38:42;100567.73;;;26.12;46.13
80781;BME280;70341;56.408;10.874;2023-07-28T09:41:11;100568.06;;;26.31;45.87
80781;BME280;70341;56.408;10.874;2023-07-28T09:43:41;100567.14;;;26.45;44.92
80781;BME280;70341;56.408;10.874;2023-07-28T09:46:10;100568.92;;;26.93;44.85
80781;BME280;70341;56.408;10.874;2023-07-28T09:48:45;100566.06;;;27.04;44.23
80781;BME280;70341;56.408;10.874;2023-07-28T09:51:18;100563.66;;;27.15;43.36
80781;BME280;70341;56.408;10.874;2023-07-28T09:53:55;100563.39;;;28.32;42.05
80781;BME280;70341;56.408;10.874;2023-07-28T09:56:28;100562.25;;;29.37;40.10
80781;BME280;70341;56.408;10.874;2023-07-28T09:58:59;100562.56;;;30.30;37.66
80781;BME280;70341;56.408;10.874;2023-07-28T10:01:32;100558.95;;;31.25;35.37
80781;BME280;70341;56.408;10.874;2023-07-28T10:04:01;100560.78;;;31.29;34.44
80781;BME280;70341;56.408;10.874;2023-07-28T10:06:32;100558.38;;;30.94;34.90
80781;BME280;70341;56.408;10.874;2023-07-28T10:09:01;100564.34;;;31.80;35.43
80781;BME280;70341;56.408;10.874;2023-07-28T10:11:31;100560.06;;;32.65;33.50
80781;BME280;70341;56.408;10.874;2023-07-28T10:14:00;100561.97;;;33.56;32.46
80781;BME280;70341;56.408;10.874;2023-07-28T10:16:38;100557.77;;;34.37;31.37
80781;BME280;70341;56.408;10.874;2023-07-28T10:19:08;100553.00;;;35.30;30.21
80781;BME280;70341;56.408;10.874;2023-07-28T10:21:40;100556.27;;;35.96;28.26
80781;BME280;70341;56.408;10.874;2023-07-28T10:24:10;100557.23;;;36.49;27.09
80781;BME280;70341;56.408;10.874;2023-07-28T10:26:40;100557.22;;;36.37;26.88
80781;BME280;70341;56.408;10.874;2023-07-28T10:29:14;100554.00;;;36.77;26.83
80781;BME280;70341;56.408;10.874;2023-07-28T10:31:54;100549.02;;;37.28;26.05
80781;BME280;70341;56.408;10.874;2023-07-28T10:34:24;100551.36;;;37.68;25.67
80781;BME280;70341;56.408;10.874;2023-07-28T10:36:57;100558.77;;;38.02;26.26
80781;BME280;70341;56.408;10.874;2023-07-28T10:39:27;100562.14;;;37.22;25.45
80781;BME280;70341;56.408;10.874;2023-07-28T10:42:07;100566.19;;;37.27;25.28
80781;BME280;70341;56.408;10.874;2023-07-28T10:44:37;100563.96;;;37.39;23.80
80781;BME280;70341;56.408;10.874;2023-07-28T10:47:10;100564.67;;;37.44;24.78
80781;BME280;70341;56.408;10.874;2023-07-28T10:49:40;100567.73;;;37.39;25.13
80781;BME280;70341;56.408;10.874;2023-07-28T10:52:08;100572.27;;;37.82;24.74
80781;BME280;70341;56.408;10.874;2023-07-28T10:54:38;100574.23;;;38.13;24.27
80781;BME280;70341;56.408;10.874;2023-07-28T10:57:06;100576.77;;;37.55;24.07
80781;BME280;70341;56.408;10.874;2023-07-28T10:59:36;100580.95;;;36.31;25.35
80781;BME280;70341;56.408;10.874;2023-07-28T11:02:04;100583.36;;;34.65;26.91
80781;BME280;70341;56.408;10.874;2023-07-28T11:04:34;100585.96;;;34.35;27.73
80781;BME280;70341;56.408;10.874;2023-07-28T11:07:03;100585.31;;;32.69;28.96
80781;BME280;70341;56.408;10.874;2023-07-28T11:09:32;100584.31;;;31.21;30.80
80781;BME280;70341;56.408;10.874;2023-07-28T11:12:01;100590.38;;;29.75;32.86
80781;BME280;70341;56.408;10.874;2023-07-28T11:14:31;100593.25;;;28.70;34.65
80781;BME280;70341;56.408;10.874;2023-07-28T11:16:59;100600.83;;;27.77;36.24
80781;BME280;70341;56.408;10.874;2023-07-28T11:19:28;100601.55;;;27.77;37.05
80781;BME280;70341;56.408;10.874;2023-07-28T11:21:57;100605.25;;;29.73;34.12
80781;BME280;70341;56.408;10.874;2023-07-28T11:24:27;100598.48;;;31.73;32.10
80781;BME280;70341;56.408;10.874;2023-07-28T11:26:57;100597.85;;;33.53;29.11
80781;BME280;70341;56.408;10.874;2023-07-28T11:29:28;100592.92;;;33.11;28.52
80781;BME280;70341;56.408;10.874;2023-07-28T11:31:56;100590.33;;;31.78;30.54
80781;BME280;70341;56.408;10.874;2023-07-28T11:34:25;100589.34;;;30.88;31.72
80781;BME280;70341;56.408;10.874;2023-07-28T11:36:54;100596.59;;;30.28;33.04
80781;BME280;70341;56.408;10.874;2023-07-28T11:39:24;100596.61;;;31.22;32.74
80781;BME280;70341;56.408;10.874;2023-07-28T11:41:52;100603.88;;;33.17;30.64
80781;BME280;70341;56.408;10.874;2023-07-28T11:44:23;100603.98;;;34.66;28.07
80781;BME280;70341;56.408;10.874;2023-07-28T11:46:51;100604.00;;;36.14;25.69
80781;BME280;70341;56.408;10.874;2023-07-28T11:49:21;100605.79;;;37.16;24.45
80781;BME280;70341;56.408;10.874;2023-07-28T11:51:52;100608.20;;;38.09;22.69
80781;BME280;70341;56.408;10.874;2023-07-28T11:54:25;100608.11;;;38.41;22.44
80781;BME280;70341;56.408;10.874;2023-07-28T11:56:56;100606.79;;;39.27;22.75
80781;BME280;70341;56.408;10.874;2023-07-28T11:59:26;100605.77;;;40.07;22.05
80781;BME280;70341;56.408;10.874;2023-07-28T12:02:04;100611.58;;;40.83;20.49
80781;BME280;70341;56.408;10.874;2023-07-28T12:04:40;100613.65;;;40.95;19.40
80781;BME280;70341;56.408;10.874;2023-07-28T12:07:16;100615.11;;;40.50;20.30
80781;BME280;70341;56.408;10.874;2023-07-28T12:12:17;100621.98;;;41.35;18.98
80781;BME280;70341;56.408;10.874;2023-07-28T12:14:50;100618.09;;;41.52;19.30
80781;BME280;70341;56.408;10.874;2023-07-28T12:17:39;100621.73;;;41.75;18.67
80781;BME280;70341;56.408;10.874;2023-07-28T12:20:10;100614.29;;;42.05;19.10
80781;BME280;70341;56.408;10.874;2023-07-28T12:22:42;100619.31;;;42.39;18.48
80781;BME280;70341;56.408;10.874;2023-07-28T12:25:11;100618.98;;;42.65;17.34
80781;BME280;70341;56.408;10.874;2023-07-28T12:27:41;100620.02;;;42.33;17.36
80781;BME280;70341;56.408;10.874;2023-07-28T12:30:10;100619.40;;;42.58;18.29
80781;BME280;70341;56.408;10.874;2023-07-28T12:32:43;100620.34;;;42.72;18.08
80781;BME280;70341;56.408;10.874;2023-07-28T12:35:33;100625.41;;;43.09;17.97
80781;BME280;70341;56.408;10.874;2023-07-28T12:38:06;100623.44;;;43.22;17.04
80781;BME280;70341;56.408;10.874;2023-07-28T12:40:37;100621.20;;;43.22;16.70
80781;BME280;70341;56.408;10.874;2023-07-28T12:43:10;100624.07;;;43.48;17.72
80781;BME280;70341;56.408;10.874;2023-07-28T12:45:59;100623.36;;;43.68;16.87
80781;BME280;70341;56.408;10.874;2023-07-28T12:48:31;100623.77;;;43.73;16.06
80781;BME280;70341;56.408;10.874;2023-07-28T12:51:00;100629.17;;;43.91;16.59
80781;BME280;70341;56.408;10.874;2023-07-28T12:53:31;100630.55;;;44.22;16.28
80781;BME280;70341;56.408;10.874;2023-07-28T12:56:01;100626.98;;;43.02;16.65
80781;BME280;70341;56.408;10.874;2023-07-28T12:58:29;100628.75;;;42.76;17.52
80781;BME280;70341;56.408;10.874;2023-07-28T13:01:02;100626.14;;;43.33;17.23
80781;BME280;70341;56.408;10.874;2023-07-28T13:03:30;100627.69;;;43.77;16.50